Terminal Aerodrome Forecast
Issued by NWS

Home | Current Version | Previous Version | Text Only | Print | Product List | Glossary On
Versions: 1 2 3 4 5 6 7 8 9 10 11 12 13 14 15 16 17 18 19 20 21 22
170
FTAK31 PAJN 032337
TAFAGY
TAF
PAGY 032337Z 0400/0424 VRB06KT P6SM VCSH SCT015 BKN070 OVC100
      TEMPO 0400/0404 04015G25KT 2SM -SHSN BKN012 OVC020
     FM041500 04015KT P6SM SKC
     FM042000 04015G30KT P6SM SKC
      AMD LTD TO CLD VIS AND WIND=

USA.gov is the U.S. government's official web portal to all federal, state and local government web resources and services.